Time;durP1;ratioP1;P1;durP2;ratioP2;P2;SDS_P1;SDS_P2;PMS_P1;PMS_P2;Temp;Humidity;BMP_temperature;BMP_pressure;BME280_temperature;BME280_humidity;BME280_pressure;Samples;Min_cycle;Max_cycle;Signal;HPM_P1;HPM_P2
2023/10/25 00:01:26;;;;;;;8.38;6.43;;;;;;;;;;5047698;27;99505;-77
2023/10/25 00:03:52;;;;;;;10.98;6.70;;;;;;;;;;5062323;27;99984;-76
2023/10/25 00:06:19;;;;;;;8.23;5.90;;;;;;;;;;5060950;27;100724;-76
2023/10/25 00:08:46;;;;;;;9.23;6.57;;;;;;;;;;5066810;27;101600;-76
2023/10/25 00:11:12;;;;;;;9.93;6.20;;;;;;;;;;5066847;27;99981;-77
2023/10/25 00:13:39;;;;;;;15.45;6.82;;;;;;;;;;5059542;27;100205;-76
2023/10/25 00:16:05;;;;;;;12.45;6.55;;;;;;;;;;5067030;27;99121;-75
2023/10/25 00:18:32;;;;;;;11.07;6.60;;;;;;;;;;5066232;27;99994;-76
2023/10/25 00:20:58;;;;;;;10.10;7.70;;;;;;;;;;5062128;27;99539;-77
2023/10/25 00:23:25;;;;;;;9.35;6.45;;;;;;;;;;5048199;27;98952;-76
2023/10/25 00:25:51;;;;;;;9.48;6.82;;;;;;;;;;5059563;27;100031;-75
2023/10/25 00:28:18;;;;;;;12.20;7.38;;;;;;;;;;5059664;27;100498;-76
2023/10/25 00:30:44;;;;;;;13.50;6.75;;;;;;;;;;5047861;27;99256;-75
2023/10/25 00:33:11;;;;;;;14.15;7.18;;;;;;;;;;5060174;27;99527;-75
2023/10/25 00:35:38;;;;;;;12.43;7.07;;;;;;;;;;5061906;27;99279;-76
2023/10/25 00:38:04;;;;;;;12.98;7.45;;;;;;;;;;5064942;27;99893;-76
2023/10/25 00:40:31;;;;;;;8.63;6.43;;;;;;;;;;5065825;27;99398;-77
2023/10/25 00:43:12;;;;;;;16.48;6.95;;;;;;;;;;5063891;27;100091;-77
2023/10/25 00:45:40;;;;;;;10.10;6.95;;;;;;;;;;5067019;27;98877;-76
2023/10/25 00:48:06;;;;;;;11.13;7.03;;;;;;;;;;5051206;27;100959;-75
2023/10/25 00:50:33;;;;;;;17.35;6.93;;;;;;;;;;5067116;27;98847;-75
2023/10/25 00:52:59;;;;;;;13.20;7.07;;;;;;;;;;5064591;27;100426;-75
2023/10/25 00:55:26;;;;;;;12.57;7.55;;;;;;;;;;5061282;27;99047;-76
2023/10/25 00:57:52;;;;;;;11.85;6.85;;;;;;;;;;5066317;27;100881;-77
2023/10/25 01:00:19;;;;;;;8.07;7.28;;;;;;;;;;5057956;27;99263;-74
2023/10/25 01:02:45;;;;;;;9.15;7.05;;;;;;;;;;5063104;27;100162;-75
2023/10/25 01:05:12;;;;;;;25.70;7.28;;;;;;;;;;5060529;27;98667;-76
2023/10/25 01:07:38;;;;;;;13.23;6.82;;;;;;;;;;5065785;27;100121;-76
2023/10/25 01:10:05;;;;;;;9.13;6.85;;;;;;;;;;5062469;27;98765;-76
2023/10/25 01:12:32;;;;;;;15.68;7.03;;;;;;;;;;5049529;27;99201;-75
2023/10/25 01:14:58;;;;;;;11.88;7.30;;;;;;;;;;5056999;27;99550;-75
2023/10/25 01:17:25;;;;;;;7.45;6.60;;;;;;;;;;5071558;27;99217;-75
2023/10/25 01:19:52;;;;;;;7.32;6.60;;;;;;;;;;5068269;27;101542;-76
2023/10/25 01:22:23;;;;;;;14.18;8.10;;;;;;;;;;5053862;27;100018;-76
2023/10/25 01:24:49;;;;;;;9.57;6.97;;;;;;;;;;5054415;27;100647;-76
2023/10/25 01:27:16;;;;;;;9.07;6.05;;;;;;;;;;5062776;27;99764;-76
2023/10/25 01:29:42;;;;;;;14.50;6.82;;;;;;;;;;5046411;27;100428;-75
2023/10/25 01:32:09;;;;;;;13.15;7.13;;;;;;;;;;5050599;27;101884;-76
2023/10/25 01:34:36;;;;;;;15.73;8.18;;;;;;;;;;5065547;27;101139;-76
2023/10/25 01:37:03;;;;;;;17.23;6.97;;;;;;;;;;5094324;27;100128;-76
2023/10/25 01:39:29;;;;;;;9.70;6.90;;;;;;;;;;5050051;27;99503;-75
2023/10/25 01:41:56;;;;;;;10.63;7.32;;;;;;;;;;5059644;27;98997;-76
2023/10/25 01:44:22;;;;;;;14.77;7.32;;;;;;;;;;5064179;27;100155;-76
2023/10/25 01:46:49;;;;;;;12.27;8.20;;;;;;;;;;5048502;27;100598;-76
2023/10/25 01:49:16;;;;;;;11.95;7.00;;;;;;;;;;5061618;27;98782;-75
2023/10/25 01:51:42;;;;;;;9.52;6.95;;;;;;;;;;5063866;27;99962;-76
2023/10/25 01:54:09;;;;;;;9.95;7.03;;;;;;;;;;5057866;27;99461;-74
2023/10/25 01:56:35;;;;;;;10.63;6.93;;;;;;;;;;5059526;27;99919;-75
2023/10/25 01:59:02;;;;;;;17.10;6.22;;;;;;;;;;5056083;27;99817;-76
2023/10/25 02:01:28;;;;;;;17.27;6.78;;;;;;;;;;5059256;27;101726;-77
2023/10/25 02:03:55;;;;;;;12.95;7.32;;;;;;;;;;5053554;27;101512;-77
2023/10/25 02:06:22;;;;;;;7.43;6.05;;;;;;;;;;5049688;27;99275;-77
2023/10/25 02:08:49;;;;;;;7.85;6.88;;;;;;;;;;5050350;27;100053;-75
2023/10/25 02:11:15;;;;;;;13.98;7.07;;;;;;;;;;5063207;27;99243;-76
2023/10/25 02:13:42;;;;;;;17.08;7.20;;;;;;;;;;5058291;27;101786;-76
2023/10/25 02:16:13;;;;;;;7.20;6.30;;;;;;;;;;5074229;27;101037;-77
2023/10/25 02:18:39;;;;;;;12.95;6.20;;;;;;;;;;5053486;27;99668;-75
2023/10/25 02:21:06;;;;;;;6.88;5.97;;;;;;;;;;5063603;27;100396;-75
2023/10/25 02:23:32;;;;;;;12.05;6.38;;;;;;;;;;5066582;27;99624;-76
2023/10/25 02:25:59;;;;;;;10.55;5.80;;;;;;;;;;5062078;27;99117;-77
2023/10/25 02:28:25;;;;;;;7.20;6.38;;;;;;;;;;5062266;27;98954;-75
2023/10/25 02:30:52;;;;;;;10.63;6.45;;;;;;;;;;5061793;27;100197;-77
2023/10/25 02:33:19;;;;;;;7.20;5.60;;;;;;;;;;5062650;27;100275;-76
2023/10/25 02:35:48;;;;;;;10.45;6.65;;;;;;;;;;5064767;27;101779;-75
2023/10/25 02:38:15;;;;;;;7.38;6.30;;;;;;;;;;5045511;27;99520;-75
2023/10/25 02:40:41;;;;;;;9.98;6.55;;;;;;;;;;5061553;27;99066;-75
2023/10/25 02:43:08;;;;;;;8.23;5.53;;;;;;;;;;5057090;27;98553;-76
2023/10/25 02:45:34;;;;;;;8.90;5.90;;;;;;;;;;5066890;27;101671;-75
2023/10/25 02:48:01;;;;;;;10.93;5.55;;;;;;;;;;5055943;27;99453;-77
2023/10/25 02:50:27;;;;;;;17.20;6.57;;;;;;;;;;5056682;27;98735;-76
2023/10/25 02:52:57;;;;;;;5.63;4.75;;;;;;;;;;5060585;27;99316;-75
2023/10/25 02:55:23;;;;;;;11.02;5.53;;;;;;;;;;5056916;27;99070;-76
2023/10/25 02:57:50;;;;;;;9.57;5.40;;;;;;;;;;5053096;27;98797;-75
2023/10/25 03:00:16;;;;;;;9.57;5.90;;;;;;;;;;5054711;27;100473;-77
2023/10/25 03:02:43;;;;;;;6.07;5.07;;;;;;;;;;5060106;27;101633;-74
2023/10/25 03:05:10;;;;;;;9.75;5.60;;;;;;;;;;5059836;27;99118;-76
2023/10/25 03:07:36;;;;;;;12.70;4.65;;;;;;;;;;5059525;27;99215;-77
2023/10/25 03:10:03;;;;;;;11.65;5.40;;;;;;;;;;5065372;27;99187;-75
2023/10/25 03:12:30;;;;;;;8.02;5.25;;;;;;;;;;5054213;27;101641;-74
2023/10/25 03:14:56;;;;;;;12.52;5.22;;;;;;;;;;5062802;27;99110;-77
2023/10/25 03:17:24;;;;;;;16.75;5.80;;;;;;;;;;5058444;27;101233;-74
2023/10/25 03:19:50;;;;;;;16.30;6.10;;;;;;;;;;5058451;27;102385;-75
2023/10/25 03:22:16;;;;;;;14.10;5.07;;;;;;;;;;5058862;27;100461;-77
2023/10/25 03:24:43;;;;;;;11.70;5.18;;;;;;;;;;5056429;27;100171;-77
2023/10/25 03:27:09;;;;;;;7.38;5.70;;;;;;;;;;5052505;27;99696;-74
2023/10/25 03:29:37;;;;;;;5.88;4.88;;;;;;;;;;5063142;27;99765;-77
2023/10/25 03:32:05;;;;;;;10.60;4.85;;;;;;;;;;5057434;27;100172;-77
2023/10/25 03:34:31;;;;;;;8.25;4.85;;;;;;;;;;5064354;27;98837;-77
2023/10/25 03:36:58;;;;;;;10.32;5.72;;;;;;;;;;5057219;27;102118;-75
2023/10/25 03:39:24;;;;;;;14.43;5.47;;;;;;;;;;5056577;27;100481;-76
2023/10/25 03:41:51;;;;;;;17.77;5.18;;;;;;;;;;5064584;27;99383;-76
2023/10/25 03:44:17;;;;;;;10.88;4.93;;;;;;;;;;5067466;27;99618;-76
2023/10/25 03:46:44;;;;;;;5.43;4.68;;;;;;;;;;5064702;27;100059;-77
2023/10/25 03:49:11;;;;;;;5.53;4.53;;;;;;;;;;5068599;27;100408;-76
2023/10/25 03:51:37;;;;;;;8.98;6.10;;;;;;;;;;5066487;27;99317;-77
2023/10/25 03:54:04;;;;;;;18.77;5.30;;;;;;;;;;5051304;27;99381;-77
2023/10/25 03:56:31;;;;;;;10.70;6.57;;;;;;;;;;5065424;27;99397;-76
2023/10/25 03:58:58;;;;;;;8.68;4.88;;;;;;;;;;5057155;27;100134;-76
2023/10/25 04:01:24;;;;;;;15.10;5.50;;;;;;;;;;5047883;27;100771;-76
2023/10/25 04:03:51;;;;;;;13.05;5.63;;;;;;;;;;5066605;27;99901;-76
2023/10/25 04:06:17;;;;;;;9.63;6.18;;;;;;;;;;5062098;27;99166;-76
2023/10/25 04:08:44;;;;;;;13.15;6.13;;;;;;;;;;5061945;27;99935;-76
2023/10/25 04:11:10;;;;;;;11.02;4.82;;;;;;;;;;5069680;27;99193;-76
2023/10/25 04:13:37;;;;;;;14.77;5.53;;;;;;;;;;5066781;27;100575;-76
2023/10/25 04:16:09;;;;;;;13.57;5.68;;;;;;;;;;5051239;27;101005;-76
2023/10/25 04:18:36;;;;;;;9.60;5.67;;;;;;;;;;5057396;27;100173;-77
2023/10/25 04:21:07;;;;;;;12.80;5.10;;;;;;;;;;5065368;27;100404;-77
2023/10/25 04:23:34;;;;;;;12.48;5.25;;;;;;;;;;5048066;27;99880;-76
2023/10/25 04:26:05;;;;;;;8.75;5.20;;;;;;;;;;5060686;27;99437;-77
2023/10/25 04:28:31;;;;;;;11.95;5.03;;;;;;;;;;5065975;27;100024;-75
2023/10/25 04:30:58;;;;;;;7.82;5.55;;;;;;;;;;5050809;27;98977;-78
2023/10/25 04:33:25;;;;;;;9.63;5.10;;;;;;;;;;5059016;27;100203;-77
2023/10/25 04:35:51;;;;;;;11.68;6.88;;;;;;;;;;5060847;27;100194;-76
2023/10/25 04:38:18;;;;;;;17.05;6.03;;;;;;;;;;5060633;27;101209;-78
2023/10/25 04:40:44;;;;;;;7.00;5.03;;;;;;;;;;5055485;27;99896;-77
2023/10/25 04:43:11;;;;;;;7.82;5.88;;;;;;;;;;5061203;27;99908;-77
2023/10/25 04:45:37;;;;;;;14.98;5.97;;;;;;;;;;5060032;27;100550;-77
2023/10/25 04:48:04;;;;;;;8.45;5.43;;;;;;;;;;5065206;27;101234;-77
2023/10/25 04:50:34;;;;;;;10.57;5.38;;;;;;;;;;5061881;27;99575;-77
2023/10/25 04:53:04;;;;;;;15.45;5.50;;;;;;;;;;5057853;27;101129;-76
2023/10/25 04:55:31;;;;;;;12.27;6.40;;;;;;;;;;5069593;27;99907;-77
2023/10/25 04:57:57;;;;;;;11.10;6.20;;;;;;;;;;5054953;27;100765;-76
2023/10/25 05:00:24;;;;;;;13.05;5.93;;;;;;;;;;5054571;27;99995;-76
2023/10/25 05:02:50;;;;;;;16.10;6.40;;;;;;;;;;5048932;27;99880;-77
2023/10/25 05:05:17;;;;;;;18.50;6.30;;;;;;;;;;5049203;27;99824;-77
2023/10/25 05:07:43;;;;;;;7.55;6.10;;;;;;;;;;5064990;27;100027;-76
2023/10/25 05:10:12;;;;;;;14.07;7.32;;;;;;;;;;5056772;27;100515;-77
2023/10/25 05:12:42;;;;;;;13.98;7.10;;;;;;;;;;5061797;27;100522;-76
2023/10/25 05:15:09;;;;;;;16.50;6.80;;;;;;;;;;5052067;27;99195;-77
2023/10/25 05:17:37;;;;;;;13.15;6.63;;;;;;;;;;5058841;27;99949;-76
2023/10/25 05:20:07;;;;;;;13.88;6.07;;;;;;;;;;5064564;27;100038;-77
2023/10/25 05:22:34;;;;;;;15.32;6.90;;;;;;;;;;5054357;27;99885;-76
2023/10/25 05:25:01;;;;;;;9.30;6.20;;;;;;;;;;5061127;27;99431;-77
2023/10/25 05:27:28;;;;;;;15.55;6.75;;;;;;;;;;5062204;27;100820;-76
2023/10/25 05:29:59;;;;;;;12.93;6.80;;;;;;;;;;5056958;27;100918;-76
2023/10/25 05:32:25;;;;;;;7.95;5.90;;;;;;;;;;5059600;27;99903;-76
2023/10/25 05:34:52;;;;;;;6.70;5.97;;;;;;;;;;5056888;27;99803;-75
2023/10/25 05:37:19;;;;;;;10.98;5.90;;;;;;;;;;5059350;27;99104;-76
2023/10/25 05:39:45;;;;;;;8.02;5.30;;;;;;;;;;5062383;27;100516;-76
2023/10/25 05:42:16;;;;;;;10.10;5.05;;;;;;;;;;5047644;27;99890;-77
2023/10/25 05:44:46;;;;;;;14.80;5.68;;;;;;;;;;5063580;27;99418;-77
2023/10/25 05:47:13;;;;;;;6.82;5.55;;;;;;;;;;5055918;27;99145;-76
2023/10/25 05:49:40;;;;;;;10.85;5.80;;;;;;;;;;5056919;27;99981;-76
2023/10/25 05:52:09;;;;;;;10.00;5.82;;;;;;;;;;5053777;27;100770;-76
2023/10/25 05:54:35;;;;;;;6.70;5.10;;;;;;;;;;5059100;27;100142;-77
2023/10/25 05:57:03;;;;;;;7.70;5.47;;;;;;;;;;5053502;27;99112;-76
2023/10/25 05:59:29;;;;;;;20.00;6.38;;;;;;;;;;5059601;27;100113;-77
2023/10/25 06:02:00;;;;;;;8.20;5.68;;;;;;;;;;5057891;27;100098;-76
2023/10/25 06:04:29;;;;;;;10.98;5.35;;;;;;;;;;5059361;27;100641;-76
2023/10/25 06:06:57;;;;;;;15.10;6.60;;;;;;;;;;5054181;27;101201;-77
2023/10/25 06:09:24;;;;;;;7.45;6.43;;;;;;;;;;5056058;27;100083;-78
2023/10/25 06:11:51;;;;;;;7.05;5.70;;;;;;;;;;5061193;27;100365;-75
2023/10/25 06:14:18;;;;;;;7.72;5.72;;;;;;;;;;5056197;27;99947;-77
2023/10/25 06:16:44;;;;;;;13.88;6.80;;;;;;;;;;5056509;27;100036;-76
2023/10/25 06:19:11;;;;;;;7.25;5.47;;;;;;;;;;5048519;27;100207;-76
2023/10/25 06:21:37;;;;;;;12.27;6.57;;;;;;;;;;5056630;27;99936;-75
2023/10/25 06:24:04;;;;;;;10.80;7.13;;;;;;;;;;5056638;27;99475;-76
2023/10/25 06:26:30;;;;;;;24.67;7.53;;;;;;;;;;5057918;27;100383;-76
2023/10/25 06:28:57;;;;;;;14.05;7.13;;;;;;;;;;5051174;27;99644;-76
2023/10/25 06:31:23;;;;;;;14.00;7.45;;;;;;;;;;5052392;27;100022;-76
2023/10/25 06:33:50;;;;;;;11.52;8.00;;;;;;;;;;5057245;27;99865;-76
2023/10/25 06:36:17;;;;;;;9.20;6.55;;;;;;;;;;5049213;27;99451;-76
2023/10/25 06:38:43;;;;;;;8.88;6.95;;;;;;;;;;5052922;27;100422;-76
2023/10/25 06:41:20;;;;;;;20.10;8.93;;;;;;;;;;5053128;27;100028;-77
2023/10/25 06:43:46;;;;;;;9.70;6.90;;;;;;;;;;5057655;27;100418;-76
2023/10/25 06:46:13;;;;;;;11.73;6.72;;;;;;;;;;5056085;27;99004;-77
2023/10/25 06:48:40;;;;;;;18.23;7.43;;;;;;;;;;5055306;27;99943;-76
2023/10/25 06:51:07;;;;;;;10.65;7.25;;;;;;;;;;5049762;27;100166;-76
2023/10/25 06:53:36;;;;;;;8.93;6.25;;;;;;;;;;5055793;27;98989;-75
2023/10/25 06:56:03;;;;;;;14.93;6.85;;;;;;;;;;5052927;27;100400;-77
2023/10/25 06:58:30;;;;;;;11.30;7.03;;;;;;;;;;5045230;27;98575;-75
2023/10/25 07:00:56;;;;;;;12.00;7.03;;;;;;;;;;5052825;27;100161;-76
2023/10/25 07:03:29;;;;;;;16.58;6.72;;;;;;;;;;5044338;27;100228;-76
2023/10/25 07:05:56;;;;;;;19.67;6.55;;;;;;;;;;5049901;27;100983;-76
2023/10/25 07:08:23;;;;;;;17.67;6.20;;;;;;;;;;5055694;27;100624;-77
2023/10/25 07:10:50;;;;;;;16.23;7.60;;;;;;;;;;5051779;27;99489;-76
2023/10/25 07:13:16;;;;;;;16.70;6.60;;;;;;;;;;5056604;27;99395;-76
2023/10/25 07:15:43;;;;;;;10.60;8.13;;;;;;;;;;5055842;27;100020;-77
2023/10/25 07:18:09;;;;;;;8.90;7.85;;;;;;;;;;5059724;27;99501;-75
2023/10/25 07:20:37;;;;;;;11.80;6.95;;;;;;;;;;5066894;27;99918;-76
2023/10/25 07:23:04;;;;;;;9.75;5.85;;;;;;;;;;5067779;27;99326;-75
2023/10/25 07:25:31;;;;;;;13.82;6.38;;;;;;;;;;5054316;27;100714;-76
2023/10/25 07:27:57;;;;;;;8.13;6.10;;;;;;;;;;5050589;27;99819;-75
2023/10/25 07:30:24;;;;;;;12.65;6.30;;;;;;;;;;5059589;27;100788;-75
2023/10/25 07:32:51;;;;;;;6.70;5.40;;;;;;;;;;5060239;27;99964;-76
2023/10/25 07:35:17;;;;;;;7.13;5.75;;;;;;;;;;5066528;27;99986;-76
2023/10/25 07:37:44;;;;;;;20.50;5.63;;;;;;;;;;5068126;27;100424;-76
2023/10/25 07:40:11;;;;;;;13.05;5.18;;;;;;;;;;5066805;27;99912;-76
2023/10/25 07:42:37;;;;;;;8.23;5.22;;;;;;;;;;5067037;27;100485;-77
2023/10/25 07:45:04;;;;;;;10.70;5.53;;;;;;;;;;5062930;27;100270;-76
2023/10/25 07:47:30;;;;;;;7.13;5.18;;;;;;;;;;5051987;27;100086;-76
2023/10/25 07:49:57;;;;;;;8.07;5.10;;;;;;;;;;5070955;27;98490;-76
2023/10/25 07:52:25;;;;;;;9.18;5.97;;;;;;;;;;5068021;27;99902;-77
2023/10/25 07:54:51;;;;;;;7.93;5.13;;;;;;;;;;5058045;27;100266;-75
2023/10/25 07:57:19;;;;;;;6.88;5.80;;;;;;;;;;5071142;27;100363;-76
2023/10/25 08:00:06;;;;;;;15.98;4.90;;;;;;;;;;5060250;27;99995;-76
2023/10/25 08:02:37;;;;;;;9.15;5.80;;;;;;;;;;5056174;27;99056;-76
2023/10/25 08:05:04;;;;;;;12.75;5.20;;;;;;;;;;5068136;27;100402;-76
2023/10/25 08:07:31;;;;;;;9.75;4.90;;;;;;;;;;5058955;27;100361;-76
2023/10/25 08:09:58;;;;;;;15.07;5.40;;;;;;;;;;5069727;27;100285;-75
2023/10/25 08:12:24;;;;;;;18.98;5.22;;;;;;;;;;5065663;27;100088;-76
2023/10/25 08:14:51;;;;;;;5.28;4.47;;;;;;;;;;5066795;27;98644;-75
2023/10/25 08:17:17;;;;;;;6.07;4.20;;;;;;;;;;5065686;27;99480;-74
2023/10/25 08:19:45;;;;;;;9.38;4.93;;;;;;;;;;5058400;27;99871;-76
2023/10/25 08:22:11;;;;;;;4.40;3.95;;;;;;;;;;5065319;27;100579;-76
2023/10/25 08:24:38;;;;;;;4.60;4.22;;;;;;;;;;5065960;27;100169;-75
2023/10/25 08:27:04;;;;;;;4.05;3.63;;;;;;;;;;5053139;27;100252;-76
2023/10/25 08:29:31;;;;;;;7.70;4.50;;;;;;;;;;5064533;27;99901;-76
2023/10/25 08:31:57;;;;;;;6.30;4.03;;;;;;;;;;5069860;27;99639;-75
2023/10/25 08:34:24;;;;;;;4.53;3.90;;;;;;;;;;5058799;27;100103;-77
2023/10/25 08:36:52;;;;;;;4.35;3.90;;;;;;;;;;5067214;27;99693;-76
2023/10/25 08:39:21;;;;;;;5.43;3.78;;;;;;;;;;5065777;27;100175;-77
2023/10/25 08:41:49;;;;;;;6.25;3.80;;;;;;;;;;5050440;27;99838;-75
2023/10/25 08:44:16;;;;;;;6.53;4.32;;;;;;;;;;5051536;27;100934;-76
2023/10/25 08:46:43;;;;;;;9.90;3.70;;;;;;;;;;5054596;27;99914;-75
2023/10/25 08:49:09;;;;;;;4.80;3.53;;;;;;;;;;5051638;27;98980;-75
2023/10/25 08:51:36;;;;;;;8.73;3.67;;;;;;;;;;5057392;27;100586;-75
2023/10/25 08:54:02;;;;;;;10.88;3.85;;;;;;;;;;5058035;27;99030;-76
2023/10/25 08:56:29;;;;;;;4.82;3.90;;;;;;;;;;5053673;27;100187;-75
2023/10/25 08:59:01;;;;;;;11.40;3.65;;;;;;;;;;5065563;27;99051;-75
2023/10/25 09:01:30;;;;;;;6.88;3.70;;;;;;;;;;5060212;27;100118;-75
2023/10/25 09:03:56;;;;;;;9.27;4.85;;;;;;;;;;5046454;27;100181;-75
2023/10/25 09:06:24;;;;;;;11.90;4.45;;;;;;;;;;5051558;27;99987;-76
2023/10/25 09:08:56;;;;;;;7.03;4.28;;;;;;;;;;5056606;27;100320;-75
2023/10/25 09:11:23;;;;;;;9.30;4.60;;;;;;;;;;5051336;27;99405;-75
2023/10/25 09:13:54;;;;;;;18.05;3.80;;;;;;;;;;5065257;27;100495;-75
2023/10/25 09:16:24;;;;;;;7.65;3.90;;;;;;;;;;5055919;27;99940;-75
2023/10/25 09:18:51;;;;;;;6.85;4.20;;;;;;;;;;5045581;27;99197;-75
2023/10/25 09:21:24;;;;;;;7.25;3.80;;;;;;;;;;5057750;27;100012;-76
2023/10/25 09:23:54;;;;;;;9.60;4.32;;;;;;;;;;5049506;27;99825;-76
2023/10/25 09:26:22;;;;;;;11.43;4.43;;;;;;;;;;5066471;27;100580;-75
2023/10/25 09:28:52;;;;;;;9.52;4.28;;;;;;;;;;5065504;27;99203;-75
2023/10/25 09:31:23;;;;;;;8.68;3.65;;;;;;;;;;5064554;27;100189;-76
2023/10/25 09:33:50;;;;;;;11.27;3.67;;;;;;;;;;5065655;27;99959;-77
2023/10/25 09:36:20;;;;;;;7.70;3.92;;;;;;;;;;5061893;27;100586;-77
2023/10/25 09:38:48;;;;;;;8.20;4.80;;;;;;;;;;5049249;27;100855;-79
2023/10/25 09:41:19;;;;;;;4.65;3.35;;;;;;;;;;5062518;27;100126;-81
2023/10/25 09:43:47;;;;;;;8.23;4.05;;;;;;;;;;5058638;27;100264;-77
2023/10/25 09:46:16;;;;;;;6.15;4.47;;;;;;;;;;5047602;27;99835;-78
2023/10/25 09:48:46;;;;;;;5.68;4.20;;;;;;;;;;5051262;27;100128;-78
2023/10/25 09:51:17;;;;;;;7.13;4.00;;;;;;;;;;5046443;27;98752;-78
2023/10/25 09:53:49;;;;;;;4.72;4.30;;;;;;;;;;5050234;27;99994;-79
2023/10/25 09:56:15;;;;;;;6.63;4.40;;;;;;;;;;5055150;27;99389;-78
2023/10/25 09:58:42;;;;;;;6.45;4.13;;;;;;;;;;5045390;27;100976;-79
2023/10/25 10:01:10;;;;;;;10.20;4.05;;;;;;;;;;5054767;27;98551;-78
2023/10/25 10:03:48;;;;;;;5.30;3.72;;;;;;;;;;5056687;27;100186;-79
2023/10/25 10:06:33;;;;;;;7.70;4.13;;;;;;;;;;5056279;27;100078;-80
2023/10/25 10:09:18;;;;;;;7.15;3.92;;;;;;;;;;5052393;27;100721;-77
2023/10/25 10:11:51;;;;;;;9.65;4.20;;;;;;;;;;5054111;27;100524;-78
2023/10/25 10:14:27;;;;;;;11.98;5.07;;;;;;;;;;5053093;27;99133;-77
2023/10/25 10:17:17;;;;;;;7.63;3.83;;;;;;;;;;5046434;27;99982;-77
2023/10/25 10:19:45;;;;;;;4.25;4.00;;;;;;;;;;5049026;27;98659;-77
2023/10/25 10:22:13;;;;;;;7.70;4.70;;;;;;;;;;5059956;27;100301;-77
2023/10/25 10:24:44;;;;;;;9.85;5.40;;;;;;;;;;5045354;27;100845;-77
2023/10/25 10:27:18;;;;;;;5.53;4.88;;;;;;;;;;5045465;27;100030;-77
2023/10/25 10:29:47;;;;;;;12.88;5.53;;;;;;;;;;5049022;27;99160;-78
2023/10/25 10:32:14;;;;;;;11.05;5.05;;;;;;;;;;5051566;27;100901;-77
2023/10/25 10:34:53;;;;;;;10.38;6.05;;;;;;;;;;5055271;27;99051;-77
2023/10/25 10:37:21;;;;;;;9.63;5.53;;;;;;;;;;5051085;27;100701;-77
2023/10/25 10:39:57;;;;;;;5.00;4.53;;;;;;;;;;5043699;27;100743;-77
2023/10/25 10:42:30;;;;;;;8.57;5.10;;;;;;;;;;5050492;27;100096;-77
2023/10/25 10:45:04;;;;;;;8.95;5.30;;;;;;;;;;5066707;27;98516;-77
2023/10/25 10:47:38;;;;;;;16.33;5.57;;;;;;;;;;5056433;27;98835;-77
2023/10/25 10:50:16;;;;;;;13.70;6.93;;;;;;;;;;5044639;27;99950;-77
2023/10/25 10:52:43;;;;;;;10.25;5.80;;;;;;;;;;5058311;27;100218;-76
2023/10/25 10:55:12;;;;;;;12.95;5.78;;;;;;;;;;5050807;27;100632;-77
2023/10/25 10:57:39;;;;;;;14.90;6.13;;;;;;;;;;5063470;27;100199;-78
2023/10/25 11:00:27;;;;;;;9.88;5.82;;;;;;;;;;5055764;27;99898;-77
2023/10/25 11:02:55;;;;;;;10.38;6.22;;;;;;;;;;5052148;27;99091;-77
2023/10/25 11:05:22;;;;;;;9.55;6.07;;;;;;;;;;5057000;27;100637;-77
2023/10/25 11:07:49;;;;;;;13.43;6.40;;;;;;;;;;5059801;27;99933;-77
2023/10/25 11:10:16;;;;;;;15.35;6.57;;;;;;;;;;5044726;27;99078;-77
2023/10/25 11:12:43;;;;;;;9.32;6.65;;;;;;;;;;5050685;27;99288;-77
2023/10/25 11:15:11;;;;;;;8.07;5.75;;;;;;;;;;5048831;27;101035;-77
2023/10/25 11:17:38;;;;;;;12.57;6.43;;;;;;;;;;5047150;27;99753;-77
2023/10/25 11:20:06;;;;;;;11.27;5.40;;;;;;;;;;5051668;27;99314;-78
2023/10/25 11:22:35;;;;;;;12.27;6.15;;;;;;;;;;5051150;27;100705;-77
2023/10/25 11:25:07;;;;;;;8.27;5.82;;;;;;;;;;5046059;27;101062;-77
2023/10/25 11:27:34;;;;;;;19.02;8.98;;;;;;;;;;5045675;27;100334;-76
2023/10/25 11:30:03;;;;;;;8.80;5.10;;;;;;;;;;5047793;27;100412;-78
2023/10/25 11:32:29;;;;;;;8.07;5.53;;;;;;;;;;5046072;27;99789;-77
2023/10/25 11:34:56;;;;;;;6.70;6.03;;;;;;;;;;5049748;27;99891;-79
2023/10/25 11:37:25;;;;;;;6.47;4.78;;;;;;;;;;5056727;27;100389;-78
2023/10/25 11:39:56;;;;;;;16.58;5.85;;;;;;;;;;5049662;27;101237;-76
2023/10/25 11:42:29;;;;;;;7.75;5.32;;;;;;;;;;5045428;27;100502;-76
2023/10/25 11:44:56;;;;;;;7.57;5.53;;;;;;;;;;5052986;27;99776;-77
2023/10/25 11:47:23;;;;;;;6.07;5.47;;;;;;;;;;5043294;27;100764;-76
2023/10/25 11:49:53;;;;;;;9.27;5.28;;;;;;;;;;5046891;27;99359;-77
2023/10/25 11:52:23;;;;;;;9.43;5.82;;;;;;;;;;5048997;27;100365;-78
2023/10/25 11:54:55;;;;;;;13.30;5.55;;;;;;;;;;5049938;27;102312;-78
2023/10/25 11:57:27;;;;;;;10.18;5.22;;;;;;;;;;5052454;27;99718;-77
2023/10/25 11:59:54;;;;;;;7.03;4.97;;;;;;;;;;5051333;27;100195;-78
2023/10/25 12:02:22;;;;;;;11.32;5.82;;;;;;;;;;5047757;27;100313;-78
2023/10/25 12:04:48;;;;;;;7.32;4.97;;;;;;;;;;5044202;27;100225;-77
2023/10/25 12:07:23;;;;;;;11.73;5.05;;;;;;;;;;5050479;27;100652;-77
2023/10/25 12:09:54;;;;;;;8.50;4.85;;;;;;;;;;5053163;27;100433;-77
2023/10/25 12:12:24;;;;;;;7.72;3.95;;;;;;;;;;5052572;27;100467;-77
2023/10/25 12:14:51;;;;;;;13.02;5.68;;;;;;;;;;5053672;27;99965;-77
2023/10/25 12:17:19;;;;;;;7.10;5.22;;;;;;;;;;5057130;27;99081;-78
2023/10/25 12:19:47;;;;;;;11.68;5.68;;;;;;;;;;5078416;27;100383;-77
2023/10/25 12:22:13;;;;;;;7.82;5.50;;;;;;;;;;5045039;27;99996;-76
2023/10/25 12:24:41;;;;;;;9.90;5.68;;;;;;;;;;5045920;27;100891;-77
2023/10/25 12:27:15;;;;;;;16.70;5.78;;;;;;;;;;5057937;27;100674;-77
2023/10/25 12:29:45;;;;;;;5.35;4.85;;;;;;;;;;5053974;27;99343;-76
2023/10/25 12:32:14;;;;;;;7.65;4.97;;;;;;;;;;5049277;27;101010;-77
2023/10/25 12:34:42;;;;;;;10.07;6.15;;;;;;;;;;5050898;27;100568;-78
2023/10/25 12:37:11;;;;;;;10.68;6.38;;;;;;;;;;5045754;27;100272;-76
2023/10/25 12:39:39;;;;;;;13.45;5.43;;;;;;;;;;5055038;27;100262;-77
2023/10/25 12:42:06;;;;;;;10.82;5.00;;;;;;;;;;5044396;27;99057;-76
2023/10/25 12:44:32;;;;;;;14.07;4.82;;;;;;;;;;5068577;27;99202;-77
2023/10/25 12:47:03;;;;;;;8.20;5.18;;;;;;;;;;5046200;27;99384;-77
2023/10/25 12:49:31;;;;;;;7.95;4.30;;;;;;;;;;5049029;27;100157;-77
2023/10/25 12:51:57;;;;;;;8.05;3.63;;;;;;;;;;5048549;27;99889;-77
2023/10/25 12:54:24;;;;;;;5.63;4.90;;;;;;;;;;5047115;27;101028;-76
2023/10/25 12:56:54;;;;;;;4.63;3.88;;;;;;;;;;5053935;27;100438;-77
2023/10/25 12:59:23;;;;;;;11.35;5.65;;;;;;;;;;5043963;27;100653;-77
2023/10/25 13:01:50;;;;;;;8.77;4.10;;;;;;;;;;5049908;27;99972;-77
2023/10/25 13:04:19;;;;;;;14.23;5.30;;;;;;;;;;5046189;27;100154;-77
2023/10/25 13:06:49;;;;;;;10.45;5.28;;;;;;;;;;5053387;27;101822;-78
2023/10/25 13:09:20;;;;;;;4.78;4.38;;;;;;;;;;5049494;27;100340;-76
2023/10/25 13:11:50;;;;;;;12.15;4.72;;;;;;;;;;5045816;27;100677;-78
2023/10/25 13:14:17;;;;;;;14.15;6.05;;;;;;;;;;5044381;27;101257;-77
2023/10/25 13:16:43;;;;;;;11.82;5.60;;;;;;;;;;5048648;27;100218;-77
2023/10/25 13:19:24;;;;;;;8.25;4.57;;;;;;;;;;5051799;27;100143;-77
2023/10/25 13:21:52;;;;;;;11.57;5.88;;;;;;;;;;5053498;27;100987;-77
2023/10/25 13:24:22;;;;;;;6.50;4.93;;;;;;;;;;5053091;27;99818;-78
2023/10/25 13:26:49;;;;;;;10.63;5.70;;;;;;;;;;5077651;27;100033;-77
2023/10/25 13:29:16;;;;;;;6.53;5.00;;;;;;;;;;5044205;27;100186;-77
2023/10/25 13:31:45;;;;;;;8.45;5.28;;;;;;;;;;5047316;27;100602;-76
2023/10/25 13:34:12;;;;;;;6.85;5.13;;;;;;;;;;5045738;27;99981;-77
2023/10/25 13:36:38;;;;;;;8.23;6.18;;;;;;;;;;5052019;27;100532;-76
2023/10/25 13:39:06;;;;;;;9.23;5.90;;;;;;;;;;5051025;27;99698;-77
2023/10/25 13:41:36;;;;;;;9.70;7.65;;;;;;;;;;5052976;27;101242;-77
2023/10/25 13:44:03;;;;;;;4.47;3.80;;;;;;;;;;5047154;27;100543;-75
2023/10/25 13:46:29;;;;;;;4.90;4.60;;;;;;;;;;5045903;27;100173;-76
2023/10/25 13:48:55;;;;;;;11.40;5.68;;;;;;;;;;5044815;27;100134;-76
2023/10/25 13:51:22;;;;;;;5.38;4.80;;;;;;;;;;5047704;27;100032;-76
2023/10/25 13:53:48;;;;;;;9.32;5.57;;;;;;;;;;5048187;27;101376;-77
2023/10/25 13:56:17;;;;;;;9.00;5.50;;;;;;;;;;5045461;27;100340;-78
2023/10/25 13:58:43;;;;;;;8.00;5.35;;;;;;;;;;5050422;27;98916;-77
2023/10/25 14:01:09;;;;;;;4.30;3.85;;;;;;;;;;5050303;27;99367;-77
2023/10/25 14:03:36;;;;;;;5.72;3.67;;;;;;;;;;5047966;27;101131;-76
2023/10/25 14:06:04;;;;;;;8.68;5.80;;;;;;;;;;5048270;27;100547;-77
2023/10/25 14:08:31;;;;;;;8.57;5.90;;;;;;;;;;5046484;27;100305;-75
2023/10/25 14:10:58;;;;;;;7.55;4.97;;;;;;;;;;5045912;27;99871;-76
2023/10/25 14:13:25;;;;;;;9.50;5.78;;;;;;;;;;5054837;27;100100;-76
2023/10/25 14:15:54;;;;;;;10.10;5.75;;;;;;;;;;5057351;27;99956;-76
2023/10/25 14:18:21;;;;;;;5.63;4.13;;;;;;;;;;5060911;27;99016;-77
2023/10/25 14:20:50;;;;;;;10.73;4.30;;;;;;;;;;5054937;27;99234;-77
2023/10/25 14:23:18;;;;;;;8.00;4.78;;;;;;;;;;5063415;27;99213;-76
2023/10/25 14:25:46;;;;;;;5.90;5.07;;;;;;;;;;5051988;27;98512;-76
2023/10/25 14:28:13;;;;;;;8.20;4.45;;;;;;;;;;5061852;27;100202;-76
2023/10/25 14:30:40;;;;;;;6.78;4.18;;;;;;;;;;5052319;27;99962;-77
2023/10/25 14:33:07;;;;;;;11.27;5.93;;;;;;;;;;5061055;27;101082;-78
2023/10/25 14:35:36;;;;;;;5.15;4.65;;;;;;;;;;5054584;27;98819;-77